sensor_id;sensor_type;location;lat;lon;timestamp;P1;durP1;ratioP1;P2;durP2;ratioP2
20731;SDS011;10527;52.124;5.196;2022-09-03T00:01:45;1.40;;;0.65;;
20731;SDS011;10527;52.124;5.196;2022-09-03T00:04:26;2.53;;;0.98;;
20731;SDS011;10527;52.124;5.196;2022-09-03T00:07:04;2.08;;;0.60;;
20731;SDS011;10527;52.124;5.196;2022-09-03T00:09:43;1.27;;;0.70;;
20731;SDS011;10527;52.124;5.196;2022-09-03T00:12:18;8.15;;;1.00;;
20731;SDS011;10527;52.124;5.196;2022-09-03T00:14:56;1.83;;;0.75;;
20731;SDS011;10527;52.124;5.196;2022-09-03T00:23:24;1.50;;;0.70;;
20731;SDS011;10527;52.124;5.196;2022-09-03T00:26:15;2.45;;;0.70;;
20731;SDS011;10527;52.124;5.196;2022-09-03T00:28:53;1.48;;;0.80;;
20731;SDS011;10527;52.124;5.196;2022-09-03T00:31:35;1.95;;;0.70;;
20731;SDS011;10527;52.124;5.196;2022-09-03T00:34:32;1.20;;;0.70;;
20731;SDS011;10527;52.124;5.196;2022-09-03T00:37:09;1.30;;;0.90;;
20731;SDS011;10527;52.124;5.196;2022-09-03T00:39:41;1.30;;;0.75;;
20731;SDS011;10527;52.124;5.196;2022-09-03T00:42:13;1.77;;;0.68;;
20731;SDS011;10527;52.124;5.196;2022-09-03T00:48:41;1.45;;;0.75;;
20731;SDS011;10527;52.124;5.196;2022-09-03T01:06:05;1.98;;;0.80;;
20731;SDS011;10527;52.124;5.196;2022-09-03T01:15:34;1.88;;;1.35;;
20731;SDS011;10527;52.124;5.196;2022-09-03T01:21:22;1.00;;;0.90;;
20731;SDS011;10527;52.124;5.196;2022-09-03T01:24:10;0.98;;;0.70;;
20731;SDS011;10527;52.124;5.196;2022-09-03T01:27:30;2.83;;;0.65;;
20731;SDS011;10527;52.124;5.196;2022-09-03T01:30:59;6.63;;;2.45;;
20731;SDS011;10527;52.124;5.196;2022-09-03T01:33:49;4.00;;;0.85;;
20731;SDS011;10527;52.124;5.196;2022-09-03T01:42:32;1.98;;;0.68;;
20731;SDS011;10527;52.124;5.196;2022-09-03T01:51:28;2.58;;;0.75;;
20731;SDS011;10527;52.124;5.196;2022-09-03T01:57:07;2.05;;;0.60;;
20731;SDS011;10527;52.124;5.196;2022-09-03T02:00:18;1.92;;;0.85;;
20731;SDS011;10527;52.124;5.196;2022-09-03T02:02:48;1.35;;;0.60;;
20731;SDS011;10527;52.124;5.196;2022-09-03T02:10:48;4.80;;;1.05;;
20731;SDS011;10527;52.124;5.196;2022-09-03T02:13:23;1.48;;;0.88;;
20731;SDS011;10527;52.124;5.196;2022-09-03T02:16:06;1.90;;;0.80;;
20731;SDS011;10527;52.124;5.196;2022-09-03T02:18:40;1.20;;;0.80;;
20731;SDS011;10527;52.124;5.196;2022-09-03T02:21:13;2.28;;;1.08;;
20731;SDS011;10527;52.124;5.196;2022-09-03T02:23:45;1.40;;;0.90;;
20731;SDS011;10527;52.124;5.196;2022-09-03T02:26:15;1.77;;;0.82;;
20731;SDS011;10527;52.124;5.196;2022-09-03T02:28:49;1.65;;;0.98;;
20731;SDS011;10527;52.124;5.196;2022-09-03T02:31:18;1.77;;;1.02;;
20731;SDS011;10527;52.124;5.196;2022-09-03T02:33:46;3.08;;;1.23;;
20731;SDS011;10527;52.124;5.196;2022-09-03T02:36:19;4.13;;;1.33;;
20731;SDS011;10527;52.124;5.196;2022-09-03T02:38:59;1.35;;;0.80;;
20731;SDS011;10527;52.124;5.196;2022-09-03T02:41:26;0.93;;;0.82;;
20731;SDS011;10527;52.124;5.196;2022-09-03T02:43:54;1.40;;;0.90;;
20731;SDS011;10527;52.124;5.196;2022-09-03T02:46:45;1.77;;;1.33;;
20731;SDS011;10527;52.124;5.196;2022-09-03T02:49:19;1.50;;;0.68;;
20731;SDS011;10527;52.124;5.196;2022-09-03T02:51:45;1.38;;;0.80;;
20731;SDS011;10527;52.124;5.196;2022-09-03T02:54:12;1.95;;;0.77;;
20731;SDS011;10527;52.124;5.196;2022-09-03T02:56:45;1.05;;;0.80;;
20731;SDS011;10527;52.124;5.196;2022-09-03T02:59:17;1.30;;;0.80;;
20731;SDS011;10527;52.124;5.196;2022-09-03T03:01:44;0.63;;;0.60;;
20731;SDS011;10527;52.124;5.196;2022-09-03T03:04:12;2.58;;;0.90;;
20731;SDS011;10527;52.124;5.196;2022-09-03T03:06:39;2.00;;;0.73;;
20731;SDS011;10527;52.124;5.196;2022-09-03T03:09:12;1.65;;;0.80;;
20731;SDS011;10527;52.124;5.196;2022-09-03T03:11:39;2.13;;;0.85;;
20731;SDS011;10527;52.124;5.196;2022-09-03T03:14:06;0.90;;;0.68;;
20731;SDS011;10527;52.124;5.196;2022-09-03T03:16:33;1.25;;;0.80;;
20731;SDS011;10527;52.124;5.196;2022-09-03T03:19:00;1.42;;;0.80;;
20731;SDS011;10527;52.124;5.196;2022-09-03T03:21:27;2.05;;;0.70;;
20731;SDS011;10527;52.124;5.196;2022-09-03T03:23:54;0.80;;;0.65;;
20731;SDS011;10527;52.124;5.196;2022-09-03T03:26:21;1.00;;;0.85;;
20731;SDS011;10527;52.124;5.196;2022-09-03T03:28:49;1.20;;;0.80;;
20731;SDS011;10527;52.124;5.196;2022-09-03T03:31:22;1.80;;;0.85;;
20731;SDS011;10527;52.124;5.196;2022-09-03T03:33:50;2.42;;;0.88;;
20731;SDS011;10527;52.124;5.196;2022-09-03T03:36:23;0.85;;;0.55;;
20731;SDS011;10527;52.124;5.196;2022-09-03T03:38:54;0.98;;;0.70;;
20731;SDS011;10527;52.124;5.196;2022-09-03T03:41:24;2.33;;;0.88;;
20731;SDS011;10527;52.124;5.196;2022-09-03T03:43:57;1.35;;;0.75;;
20731;SDS011;10527;52.124;5.196;2022-09-03T03:46:34;2.65;;;0.90;;
20731;SDS011;10527;52.124;5.196;2022-09-03T03:49:04;0.85;;;0.60;;
20731;SDS011;10527;52.124;5.196;2022-09-03T03:51:33;0.70;;;0.70;;
20731;SDS011;10527;52.124;5.196;2022-09-03T03:54:01;2.78;;;0.80;;
20731;SDS011;10527;52.124;5.196;2022-09-03T03:56:30;2.08;;;0.80;;
20731;SDS011;10527;52.124;5.196;2022-09-03T03:58:59;1.42;;;1.00;;
20731;SDS011;10527;52.124;5.196;2022-09-03T04:01:26;1.25;;;0.60;;
20731;SDS011;10527;52.124;5.196;2022-09-03T04:03:54;1.50;;;0.98;;
20731;SDS011;10527;52.124;5.196;2022-09-03T04:06:22;0.63;;;0.60;;
20731;SDS011;10527;52.124;5.196;2022-09-03T04:08:49;2.10;;;1.10;;
20731;SDS011;10527;52.124;5.196;2022-09-03T04:11:18;0.77;;;0.50;;
20731;SDS011;10527;52.124;5.196;2022-09-03T04:13:48;0.82;;;0.60;;
20731;SDS011;10527;52.124;5.196;2022-09-03T04:16:17;2.03;;;0.80;;
20731;SDS011;10527;52.124;5.196;2022-09-03T04:18:47;1.73;;;0.90;;
20731;SDS011;10527;52.124;5.196;2022-09-03T04:21:16;1.35;;;0.93;;
20731;SDS011;10527;52.124;5.196;2022-09-03T04:23:46;3.50;;;0.68;;
20731;SDS011;10527;52.124;5.196;2022-09-03T04:26:20;1.23;;;0.95;;
20731;SDS011;10527;52.124;5.196;2022-09-03T04:28:50;5.18;;;0.70;;
20731;SDS011;10527;52.124;5.196;2022-09-03T04:31:18;1.63;;;0.80;;
20731;SDS011;10527;52.124;5.196;2022-09-03T04:33:46;2.40;;;0.80;;
20731;SDS011;10527;52.124;5.196;2022-09-03T04:36:17;1.40;;;0.77;;
20731;SDS011;10527;52.124;5.196;2022-09-03T04:38:50;1.25;;;0.85;;
20731;SDS011;10527;52.124;5.196;2022-09-03T04:41:30;1.15;;;0.85;;
20731;SDS011;10527;52.124;5.196;2022-09-03T04:43:57;1.60;;;1.00;;
20731;SDS011;10527;52.124;5.196;2022-09-03T04:46:25;1.55;;;0.90;;
20731;SDS011;10527;52.124;5.196;2022-09-03T04:48:59;4.00;;;1.08;;
20731;SDS011;10527;52.124;5.196;2022-09-03T04:51:27;2.38;;;1.20;;
20731;SDS011;10527;52.124;5.196;2022-09-03T04:53:56;2.50;;;1.20;;
20731;SDS011;10527;52.124;5.196;2022-09-03T04:56:30;2.05;;;1.70;;
20731;SDS011;10527;52.124;5.196;2022-09-03T04:59:01;2.28;;;1.40;;
20731;SDS011;10527;52.124;5.196;2022-09-03T05:01:34;5.30;;;1.20;;
20731;SDS011;10527;52.124;5.196;2022-09-03T05:04:04;6.55;;;1.63;;
20731;SDS011;10527;52.124;5.196;2022-09-03T05:06:33;3.53;;;1.25;;
20731;SDS011;10527;52.124;5.196;2022-09-03T05:09:02;1.80;;;1.17;;
20731;SDS011;10527;52.124;5.196;2022-09-03T05:11:30;1.88;;;1.27;;
20731;SDS011;10527;52.124;5.196;2022-09-03T05:14:00;2.20;;;1.17;;
20731;SDS011;10527;52.124;5.196;2022-09-03T05:16:27;3.63;;;1.30;;
20731;SDS011;10527;52.124;5.196;2022-09-03T05:18:56;1.80;;;0.98;;
20731;SDS011;10527;52.124;5.196;2022-09-03T05:21:25;1.88;;;1.20;;
20731;SDS011;10527;52.124;5.196;2022-09-03T05:23:55;2.22;;;0.90;;
20731;SDS011;10527;52.124;5.196;2022-09-03T05:26:23;2.70;;;0.80;;
20731;SDS011;10527;52.124;5.196;2022-09-03T05:28:53;1.42;;;0.70;;
20731;SDS011;10527;52.124;5.196;2022-09-03T05:31:25;3.75;;;1.45;;
20731;SDS011;10527;52.124;5.196;2022-09-03T05:33:58;2.38;;;0.90;;
20731;SDS011;10527;52.124;5.196;2022-09-03T05:36:29;1.77;;;0.90;;
20731;SDS011;10527;52.124;5.196;2022-09-03T05:39:02;1.60;;;0.80;;
20731;SDS011;10527;52.124;5.196;2022-09-03T05:41:31;1.42;;;0.75;;
20731;SDS011;10527;52.124;5.196;2022-09-03T05:43:59;3.83;;;1.08;;
20731;SDS011;10527;52.124;5.196;2022-09-03T05:46:27;1.58;;;0.90;;
20731;SDS011;10527;52.124;5.196;2022-09-03T05:48:58;1.20;;;0.80;;
20731;SDS011;10527;52.124;5.196;2022-09-03T05:51:31;0.77;;;0.73;;
20731;SDS011;10527;52.124;5.196;2022-09-03T05:54:01;4.25;;;0.85;;
20731;SDS011;10527;52.124;5.196;2022-09-03T05:56:29;0.82;;;0.65;;
20731;SDS011;10527;52.124;5.196;2022-09-03T05:59:01;5.30;;;0.70;;
20731;SDS011;10527;52.124;5.196;2022-09-03T06:04:14;2.53;;;0.80;;
20731;SDS011;10527;52.124;5.196;2022-09-03T06:06:43;2.13;;;0.80;;
20731;SDS011;10527;52.124;5.196;2022-09-03T06:09:12;1.73;;;0.70;;
20731;SDS011;10527;52.124;5.196;2022-09-03T06:11:48;1.00;;;0.60;;
20731;SDS011;10527;52.124;5.196;2022-09-03T06:14:17;4.18;;;0.90;;
20731;SDS011;10527;52.124;5.196;2022-09-03T06:16:45;2.20;;;0.80;;
20731;SDS011;10527;52.124;5.196;2022-09-03T06:19:15;1.38;;;0.70;;
20731;SDS011;10527;52.124;5.196;2022-09-03T06:21:43;3.08;;;0.70;;
20731;SDS011;10527;52.124;5.196;2022-09-03T06:24:20;3.70;;;0.90;;
20731;SDS011;10527;52.124;5.196;2022-09-03T06:26:56;1.60;;;0.60;;
20731;SDS011;10527;52.124;5.196;2022-09-03T06:29:23;1.55;;;0.80;;
20731;SDS011;10527;52.124;5.196;2022-09-03T06:31:50;1.38;;;0.65;;
20731;SDS011;10527;52.124;5.196;2022-09-03T06:34:17;3.15;;;1.35;;
20731;SDS011;10527;52.124;5.196;2022-09-03T06:36:44;2.17;;;1.15;;
20731;SDS011;10527;52.124;5.196;2022-09-03T06:39:11;1.70;;;0.80;;
20731;SDS011;10527;52.124;5.196;2022-09-03T06:41:38;2.17;;;0.88;;
20731;SDS011;10527;52.124;5.196;2022-09-03T06:44:05;2.22;;;0.77;;
20731;SDS011;10527;52.124;5.196;2022-09-03T06:46:37;1.30;;;0.77;;
20731;SDS011;10527;52.124;5.196;2022-09-03T06:49:11;1.35;;;1.00;;
20731;SDS011;10527;52.124;5.196;2022-09-03T06:51:38;1.27;;;0.75;;
20731;SDS011;10527;52.124;5.196;2022-09-03T06:54:06;1.40;;;0.65;;
20731;SDS011;10527;52.124;5.196;2022-09-03T06:56:36;1.30;;;0.60;;
20731;SDS011;10527;52.124;5.196;2022-09-03T06:59:10;1.08;;;0.75;;
20731;SDS011;10527;52.124;5.196;2022-09-03T07:01:40;2.85;;;0.80;;
20731;SDS011;10527;52.124;5.196;2022-09-03T07:04:12;0.70;;;0.60;;
20731;SDS011;10527;52.124;5.196;2022-09-03T07:06:44;0.95;;;0.63;;
20731;SDS011;10527;52.124;5.196;2022-09-03T07:09:11;1.17;;;0.85;;
20731;SDS011;10527;52.124;5.196;2022-09-03T07:11:40;1.40;;;0.80;;
20731;SDS011;10527;52.124;5.196;2022-09-03T07:14:13;1.10;;;0.88;;
20731;SDS011;10527;52.124;5.196;2022-09-03T07:16:43;0.93;;;0.60;;
20731;SDS011;10527;52.124;5.196;2022-09-03T07:19:11;1.52;;;0.90;;
20731;SDS011;10527;52.124;5.196;2022-09-03T07:21:39;3.03;;;0.70;;
20731;SDS011;10527;52.124;5.196;2022-09-03T07:24:15;3.03;;;0.80;;
20731;SDS011;10527;52.124;5.196;2022-09-03T07:26:45;0.75;;;0.50;;
20731;SDS011;10527;52.124;5.196;2022-09-03T07:29:14;3.30;;;0.80;;
20731;SDS011;10527;52.124;5.196;2022-09-03T07:31:46;3.13;;;0.65;;
20731;SDS011;10527;52.124;5.196;2022-09-03T07:34:19;1.95;;;1.00;;
20731;SDS011;10527;52.124;5.196;2022-09-03T07:36:51;6.32;;;1.00;;
20731;SDS011;10527;52.124;5.196;2022-09-03T07:39:18;2.08;;;0.70;;
20731;SDS011;10527;52.124;5.196;2022-09-03T07:41:46;3.22;;;1.10;;
20731;SDS011;10527;52.124;5.196;2022-09-03T07:44:13;1.20;;;0.65;;
20731;SDS011;10527;52.124;5.196;2022-09-03T07:46:44;3.42;;;0.80;;
20731;SDS011;10527;52.124;5.196;2022-09-03T07:49:13;1.80;;;0.73;;
20731;SDS011;10527;52.124;5.196;2022-09-03T07:51:40;2.60;;;0.90;;
20731;SDS011;10527;52.124;5.196;2022-09-03T07:54:08;1.95;;;0.90;;
20731;SDS011;10527;52.124;5.196;2022-09-03T07:56:37;1.27;;;0.80;;
20731;SDS011;10527;52.124;5.196;2022-09-03T07:59:05;1.42;;;0.80;;
20731;SDS011;10527;52.124;5.196;2022-09-03T08:01:34;3.47;;;0.80;;
20731;SDS011;10527;52.124;5.196;2022-09-03T08:04:05;0.80;;;0.60;;
20731;SDS011;10527;52.124;5.196;2022-09-03T08:06:35;1.88;;;0.90;;
20731;SDS011;10527;52.124;5.196;2022-09-03T08:09:04;3.75;;;0.80;;
20731;SDS011;10527;52.124;5.196;2022-09-03T08:11:35;2.17;;;0.65;;
20731;SDS011;10527;52.124;5.196;2022-09-03T08:14:05;3.78;;;0.60;;
20731;SDS011;10527;52.124;5.196;2022-09-03T08:16:38;1.25;;;0.50;;
20731;SDS011;10527;52.124;5.196;2022-09-03T08:19:08;2.08;;;0.60;;
20731;SDS011;10527;52.124;5.196;2022-09-03T08:21:39;0.65;;;0.50;;
20731;SDS011;10527;52.124;5.196;2022-09-03T08:24:07;3.63;;;0.60;;
20731;SDS011;10527;52.124;5.196;2022-09-03T08:26:36;1.15;;;0.80;;
20731;SDS011;10527;52.124;5.196;2022-09-03T08:29:11;2.03;;;1.27;;
20731;SDS011;10527;52.124;5.196;2022-09-03T08:31:38;1.88;;;0.85;;
20731;SDS011;10527;52.124;5.196;2022-09-03T08:34:05;5.85;;;0.60;;
20731;SDS011;10527;52.124;5.196;2022-09-03T08:36:34;2.28;;;0.60;;
20731;SDS011;10527;52.124;5.196;2022-09-03T08:39:04;2.60;;;0.65;;
20731;SDS011;10527;52.124;5.196;2022-09-03T08:41:58;1.55;;;0.65;;
20731;SDS011;10527;52.124;5.196;2022-09-03T08:44:47;2.63;;;0.60;;
20731;SDS011;10527;52.124;5.196;2022-09-03T08:47:29;1.35;;;0.63;;
20731;SDS011;10527;52.124;5.196;2022-09-03T08:52:37;0.60;;;0.50;;
20731;SDS011;10527;52.124;5.196;2022-09-03T08:55:16;3.28;;;0.70;;
20731;SDS011;10527;52.124;5.196;2022-09-03T09:00:41;1.25;;;0.43;;
20731;SDS011;10527;52.124;5.196;2022-09-03T09:12:15;1.13;;;0.50;;
20731;SDS011;10527;52.124;5.196;2022-09-03T09:18:09;1.00;;;0.63;;
20731;SDS011;10527;52.124;5.196;2022-09-03T09:21:08;0.65;;;0.47;;
20731;SDS011;10527;52.124;5.196;2022-09-03T09:23:48;0.73;;;0.40;;
20731;SDS011;10527;52.124;5.196;2022-09-03T09:26:18;1.67;;;0.60;;
20731;SDS011;10527;52.124;5.196;2022-09-03T09:28:56;0.57;;;0.45;;
20731;SDS011;10527;52.124;5.196;2022-09-03T09:31:36;2.60;;;0.50;;
20731;SDS011;10527;52.124;5.196;2022-09-03T09:34:07;1.05;;;0.38;;
20731;SDS011;10527;52.124;5.196;2022-09-03T09:36:42;1.95;;;0.60;;
20731;SDS011;10527;52.124;5.196;2022-09-03T09:39:19;2.97;;;0.63;;
20731;SDS011;10527;52.124;5.196;2022-09-03T09:41:59;2.55;;;0.47;;
20731;SDS011;10527;52.124;5.196;2022-09-03T09:44:37;2.75;;;0.73;;
20731;SDS011;10527;52.124;5.196;2022-09-03T09:47:24;0.88;;;0.50;;
20731;SDS011;10527;52.124;5.196;2022-09-03T09:49:55;0.77;;;0.47;;
20731;SDS011;10527;52.124;5.196;2022-09-03T09:52:26;7.50;;;0.88;;
20731;SDS011;10527;52.124;5.196;2022-09-03T09:55:09;1.38;;;0.57;;
20731;SDS011;10527;52.124;5.196;2022-09-03T09:58:03;2.05;;;0.60;;
20731;SDS011;10527;52.124;5.196;2022-09-03T10:00:39;1.13;;;0.52;;
20731;SDS011;10527;52.124;5.196;2022-09-03T10:03:09;3.67;;;0.55;;
20731;SDS011;10527;52.124;5.196;2022-09-03T10:05:39;1.52;;;0.98;;
20731;SDS011;10527;52.124;5.196;2022-09-03T10:08:17;0.77;;;0.50;;
20731;SDS011;10527;52.124;5.196;2022-09-03T10:10:47;1.02;;;0.50;;
20731;SDS011;10527;52.124;5.196;2022-09-03T10:13:25;3.28;;;0.73;;
20731;SDS011;10527;52.124;5.196;2022-09-03T10:22:12;2.72;;;0.45;;
20731;SDS011;10527;52.124;5.196;2022-09-03T10:24:47;2.85;;;0.70;;
20731;SDS011;10527;52.124;5.196;2022-09-03T10:27:24;1.27;;;0.55;;
20731;SDS011;10527;52.124;5.196;2022-09-03T10:29:51;2.50;;;0.65;;
20731;SDS011;10527;52.124;5.196;2022-09-03T10:33:21;1.40;;;0.60;;
20731;SDS011;10527;52.124;5.196;2022-09-03T10:35:45;4.40;;;0.70;;
20731;SDS011;10527;52.124;5.196;2022-09-03T10:39:03;3.67;;;0.90;;
20731;SDS011;10527;52.124;5.196;2022-09-03T10:45:15;1.90;;;0.52;;
20731;SDS011;10527;52.124;5.196;2022-09-03T10:50:55;1.20;;;0.50;;
20731;SDS011;10527;52.124;5.196;2022-09-03T10:53:42;2.75;;;0.57;;
20731;SDS011;10527;52.124;5.196;2022-09-03T11:02:41;3.38;;;0.63;;
20731;SDS011;10527;52.124;5.196;2022-09-03T11:05:39;5.28;;;0.70;;
20731;SDS011;10527;52.124;5.196;2022-09-03T11:14:12;2.28;;;1.27;;
20731;SDS011;10527;52.124;5.196;2022-09-03T11:16:52;1.08;;;0.57;;
20731;SDS011;10527;52.124;5.196;2022-09-03T11:22:45;1.08;;;0.50;;
20731;SDS011;10527;52.124;5.196;2022-09-03T11:25:19;1.00;;;0.60;;
20731;SDS011;10527;52.124;5.196;2022-09-03T11:34:14;2.78;;;0.88;;
20731;SDS011;10527;52.124;5.196;2022-09-03T11:37:05;0.85;;;0.57;;
20731;SDS011;10527;52.124;5.196;2022-09-03T11:39:44;2.05;;;0.52;;
20731;SDS011;10527;52.124;5.196;2022-09-03T11:42:29;0.70;;;0.60;;
20731;SDS011;10527;52.124;5.196;2022-09-03T11:47:59;1.08;;;0.55;;
20731;SDS011;10527;52.124;5.196;2022-09-03T11:50:31;0.63;;;0.40;;
20731;SDS011;10527;52.124;5.196;2022-09-03T11:53:07;2.50;;;0.52;;
20731;SDS011;10527;52.124;5.196;2022-09-03T11:55:54;3.45;;;0.55;;
20731;SDS011;10527;52.124;5.196;2022-09-03T11:58:37;1.23;;;0.57;;
20731;SDS011;10527;52.124;5.196;2022-09-03T12:01:09;0.95;;;0.55;;
20731;SDS011;10527;52.124;5.196;2022-09-03T12:03:48;1.80;;;0.63;;
20731;SDS011;10527;52.124;5.196;2022-09-03T12:09:34;0.80;;;0.30;;
20731;SDS011;10527;52.124;5.196;2022-09-03T12:18:25;3.03;;;0.85;;
20731;SDS011;10527;52.124;5.196;2022-09-03T12:23:32;1.02;;;0.50;;
20731;SDS011;10527;52.124;5.196;2022-09-03T12:28:49;1.35;;;0.60;;
20731;SDS011;10527;52.124;5.196;2022-09-03T12:31:26;3.67;;;0.52;;
20731;SDS011;10527;52.124;5.196;2022-09-03T12:34:00;0.43;;;0.40;;
20731;SDS011;10527;52.124;5.196;2022-09-03T12:36:39;3.72;;;0.70;;
20731;SDS011;10527;52.124;5.196;2022-09-03T12:39:13;1.58;;;0.70;;
20731;SDS011;10527;52.124;5.196;2022-09-03T12:42:06;1.80;;;0.63;;
20731;SDS011;10527;52.124;5.196;2022-09-03T12:44:49;1.95;;;0.93;;
20731;SDS011;10527;52.124;5.196;2022-09-03T12:47:17;1.65;;;0.70;;
20731;SDS011;10527;52.124;5.196;2022-09-03T12:50:10;3.33;;;0.50;;
20731;SDS011;10527;52.124;5.196;2022-09-03T12:58:22;1.15;;;0.60;;
20731;SDS011;10527;52.124;5.196;2022-09-03T13:01:16;3.13;;;0.80;;
20731;SDS011;10527;52.124;5.196;2022-09-03T13:04:09;4.55;;;0.60;;
20731;SDS011;10527;52.124;5.196;2022-09-03T13:09:34;1.40;;;0.55;;
20731;SDS011;10527;52.124;5.196;2022-09-03T13:12:04;12.70;;;1.92;;
20731;SDS011;10527;52.124;5.196;2022-09-03T13:14:46;1.25;;;0.77;;
20731;SDS011;10527;52.124;5.196;2022-09-03T13:17:29;2.22;;;0.47;;
20731;SDS011;10527;52.124;5.196;2022-09-03T13:20:34;0.60;;;0.50;;
20731;SDS011;10527;52.124;5.196;2022-09-03T13:23:38;2.70;;;0.70;;
20731;SDS011;10527;52.124;5.196;2022-09-03T13:29:23;1.15;;;0.60;;
20731;SDS011;10527;52.124;5.196;2022-09-03T13:32:10;1.27;;;0.80;;
20731;SDS011;10527;52.124;5.196;2022-09-03T13:34:55;2.95;;;0.70;;
20731;SDS011;10527;52.124;5.196;2022-09-03T13:37:48;1.00;;;0.80;;
20731;SDS011;10527;52.124;5.196;2022-09-03T13:40:35;1.83;;;0.90;;
20731;SDS011;10527;52.124;5.196;2022-09-03T13:43:22;0.90;;;0.60;;
20731;SDS011;10527;52.124;5.196;2022-09-03T13:46:10;1.85;;;0.65;;
20731;SDS011;10527;52.124;5.196;2022-09-03T13:52:53;0.40;;;0.40;;
20731;SDS011;10527;52.124;5.196;2022-09-03T13:57:58;1.13;;;0.68;;
20731;SDS011;10527;52.124;5.196;2022-09-03T14:03:37;2.00;;;0.70;;
20731;SDS011;10527;52.124;5.196;2022-09-03T14:21:07;1.60;;;0.88;;
20731;SDS011;10527;52.124;5.196;2022-09-03T14:24:26;1.77;;;0.70;;
20731;SDS011;10527;52.124;5.196;2022-09-03T14:27:12;1.73;;;0.80;;
20731;SDS011;10527;52.124;5.196;2022-09-03T14:30:00;1.05;;;0.57;;
20731;SDS011;10527;52.124;5.196;2022-09-03T14:41:48;1.52;;;0.60;;
20731;SDS011;10527;52.124;5.196;2022-09-03T14:44:41;7.43;;;0.95;;
20731;SDS011;10527;52.124;5.196;2022-09-03T14:47:59;1.98;;;0.63;;
20731;SDS011;10527;52.124;5.196;2022-09-03T15:00:01;0.98;;;0.50;;
20731;SDS011;10527;52.124;5.196;2022-09-03T15:12:07;1.52;;;0.55;;
20731;SDS011;10527;52.124;5.196;2022-09-03T15:26:09;3.67;;;0.60;;
20731;SDS011;10527;52.124;5.196;2022-09-03T15:34:54;1.02;;;0.60;;
20731;SDS011;10527;52.124;5.196;2022-09-03T15:37:45;2.30;;;0.70;;
20731;SDS011;10527;52.124;5.196;2022-09-03T15:40:28;0.80;;;0.60;;
20731;SDS011;10527;52.124;5.196;2022-09-03T15:43:29;0.82;;;0.68;;
20731;SDS011;10527;52.124;5.196;2022-09-03T15:46:03;2.03;;;1.13;;
20731;SDS011;10527;52.124;5.196;2022-09-03T15:51:32;1.35;;;0.77;;
20731;SDS011;10527;52.124;5.196;2022-09-03T15:54:11;1.88;;;0.60;;
20731;SDS011;10527;52.124;5.196;2022-09-03T15:57:04;1.60;;;0.63;;
20731;SDS011;10527;52.124;5.196;2022-09-03T15:59:40;0.68;;;0.50;;
20731;SDS011;10527;52.124;5.196;2022-09-03T16:05:18;0.55;;;0.40;;
20731;SDS011;10527;52.124;5.196;2022-09-03T16:08:21;1.15;;;0.60;;
20731;SDS011;10527;52.124;5.196;2022-09-03T16:11:31;0.70;;;0.50;;
20731;SDS011;10527;52.124;5.196;2022-09-03T16:16:48;1.02;;;0.70;;
20731;SDS011;10527;52.124;5.196;2022-09-03T16:22:13;3.22;;;0.70;;
20731;SDS011;10527;52.124;5.196;2022-09-03T16:27:49;0.82;;;0.70;;
20731;SDS011;10527;52.124;5.196;2022-09-03T16:39:15;0.68;;;0.60;;
20731;SDS011;10527;52.124;5.196;2022-09-03T16:42:24;11.52;;;2.20;;
20731;SDS011;10527;52.124;5.196;2022-09-03T16:50:52;1.48;;;0.60;;
20731;SDS011;10527;52.124;5.196;2022-09-03T16:53:49;2.03;;;0.70;;
20731;SDS011;10527;52.124;5.196;2022-09-03T17:12:07;0.68;;;0.68;;
20731;SDS011;10527;52.124;5.196;2022-09-03T17:15:25;1.00;;;0.70;;
20731;SDS011;10527;52.124;5.196;2022-09-03T17:18:28;1.48;;;0.55;;
20731;SDS011;10527;52.124;5.196;2022-09-03T17:24:53;1.63;;;0.68;;
20731;SDS011;10527;52.124;5.196;2022-09-03T17:48:00;1.90;;;0.80;;
20731;SDS011;10527;52.124;5.196;2022-09-03T17:50:44;1.33;;;0.82;;
20731;SDS011;10527;52.124;5.196;2022-09-03T17:53:27;2.63;;;1.25;;
20731;SDS011;10527;52.124;5.196;2022-09-03T17:56:07;1.05;;;0.98;;
20731;SDS011;10527;52.124;5.196;2022-09-03T17:59:29;4.93;;;1.25;;
20731;SDS011;10527;52.124;5.196;2022-09-03T18:05:28;2.45;;;0.95;;
20731;SDS011;10527;52.124;5.196;2022-09-03T18:10:48;2.65;;;0.90;;
20731;SDS011;10527;52.124;5.196;2022-09-03T18:13:45;2.28;;;1.00;;
20731;SDS011;10527;52.124;5.196;2022-09-03T18:16:36;1.15;;;0.82;;
20731;SDS011;10527;52.124;5.196;2022-09-03T18:21:56;1.52;;;0.80;;
20731;SDS011;10527;52.124;5.196;2022-09-03T18:24:51;2.33;;;0.90;;
20731;SDS011;10527;52.124;5.196;2022-09-03T18:28:00;1.20;;;0.90;;
20731;SDS011;10527;52.124;5.196;2022-09-03T18:30:53;1.63;;;1.00;;
20731;SDS011;10527;52.124;5.196;2022-09-03T18:33:39;1.40;;;0.80;;
20731;SDS011;10527;52.124;5.196;2022-09-03T18:36:25;1.50;;;0.90;;
20731;SDS011;10527;52.124;5.196;2022-09-03T18:39:13;3.03;;;1.02;;
20731;SDS011;10527;52.124;5.196;2022-09-03T18:45:38;1.77;;;1.00;;
20731;SDS011;10527;52.124;5.196;2022-09-03T18:52:49;2.70;;;0.82;;
20731;SDS011;10527;52.124;5.196;2022-09-03T19:09:33;5.68;;;3.22;;
20731;SDS011;10527;52.124;5.196;2022-09-03T19:13:03;13.23;;;9.23;;
20731;SDS011;10527;52.124;5.196;2022-09-03T19:16:38;14.18;;;10.55;;
20731;SDS011;10527;52.124;5.196;2022-09-03T19:23:20;7.15;;;5.68;;
20731;SDS011;10527;52.124;5.196;2022-09-03T19:30:15;4.18;;;2.95;;
20731;SDS011;10527;52.124;5.196;2022-09-03T19:40:04;3.83;;;2.80;;
20731;SDS011;10527;52.124;5.196;2022-09-03T19:46:32;6.88;;;3.90;;
20731;SDS011;10527;52.124;5.196;2022-09-03T19:50:07;5.50;;;3.88;;
20731;SDS011;10527;52.124;5.196;2022-09-03T19:53:14;6.00;;;3.05;;
20731;SDS011;10527;52.124;5.196;2022-09-03T19:56:08;4.40;;;2.53;;
20731;SDS011;10527;52.124;5.196;2022-09-03T19:59:18;3.80;;;2.47;;
20731;SDS011;10527;52.124;5.196;2022-09-03T20:02:06;3.58;;;2.17;;
20731;SDS011;10527;52.124;5.196;2022-09-03T20:04:57;3.05;;;2.15;;
20731;SDS011;10527;52.124;5.196;2022-09-03T20:07:48;5.07;;;2.40;;
20731;SDS011;10527;52.124;5.196;2022-09-03T20:10:39;4.10;;;2.58;;
20731;SDS011;10527;52.124;5.196;2022-09-03T20:13:10;5.68;;;3.65;;
20731;SDS011;10527;52.124;5.196;2022-09-03T20:15:48;7.07;;;4.00;;
20731;SDS011;10527;52.124;5.196;2022-09-03T20:21:28;5.93;;;4.43;;
20731;SDS011;10527;52.124;5.196;2022-09-03T20:27:29;7.65;;;3.53;;
20731;SDS011;10527;52.124;5.196;2022-09-03T20:30:41;6.60;;;3.63;;
20731;SDS011;10527;52.124;5.196;2022-09-03T20:42:29;8.38;;;5.75;;
20731;SDS011;10527;52.124;5.196;2022-09-03T20:45:31;7.35;;;5.45;;
20731;SDS011;10527;52.124;5.196;2022-09-03T20:48:20;6.22;;;4.35;;
20731;SDS011;10527;52.124;5.196;2022-09-03T20:51:40;7.22;;;5.03;;
20731;SDS011;10527;52.124;5.196;2022-09-03T20:54:27;7.53;;;5.53;;
20731;SDS011;10527;52.124;5.196;2022-09-03T21:00:21;7.82;;;5.15;;
20731;SDS011;10527;52.124;5.196;2022-09-03T21:16:55;10.90;;;7.03;;
20731;SDS011;10527;52.124;5.196;2022-09-03T21:25:50;10.27;;;7.68;;
20731;SDS011;10527;52.124;5.196;2022-09-03T21:28:24;5.90;;;4.63;;
20731;SDS011;10527;52.124;5.196;2022-09-03T21:31:14;3.95;;;2.90;;
20731;SDS011;10527;52.124;5.196;2022-09-03T21:33:46;3.30;;;2.38;;
20731;SDS011;10527;52.124;5.196;2022-09-03T21:36:24;3.90;;;2.75;;
20731;SDS011;10527;52.124;5.196;2022-09-03T21:39:02;4.25;;;2.40;;
20731;SDS011;10527;52.124;5.196;2022-09-03T21:47:13;5.72;;;2.20;;
20731;SDS011;10527;52.124;5.196;2022-09-03T21:52:30;5.32;;;2.15;;
20731;SDS011;10527;52.124;5.196;2022-09-03T21:55:20;3.92;;;1.77;;
20731;SDS011;10527;52.124;5.196;2022-09-03T22:01:05;3.28;;;1.67;;
20731;SDS011;10527;52.124;5.196;2022-09-03T22:03:44;2.45;;;1.95;;
20731;SDS011;10527;52.124;5.196;2022-09-03T22:06:13;3.47;;;2.17;;
20731;SDS011;10527;52.124;5.196;2022-09-03T22:09:25;3.25;;;1.95;;
20731;SDS011;10527;52.124;5.196;2022-09-03T22:11:59;3.40;;;2.45;;
20731;SDS011;10527;52.124;5.196;2022-09-03T22:14:57;4.15;;;2.20;;